sensor_id;sensor_type;location;lat;lon;timestamp;pressure;altitude;pressure_sealevel;temperature;humidity
61757;BME280;57225;61.460;24.060;2023-04-23T11:37:48;99384.34;;;14.16;51.14
61757;BME280;57225;61.460;24.060;2023-04-23T11:40:32;99367.50;;;13.90;52.08
61757;BME280;57225;61.460;24.060;2023-04-23T11:43:18;99367.63;;;14.12;52.52
61757;BME280;57225;61.460;24.060;2023-04-23T11:46:04;99372.50;;;14.37;51.77
61757;BME280;57225;61.460;24.060;2023-04-23T11:48:49;99367.84;;;14.46;50.35
61757;BME280;57225;61.460;24.060;2023-04-23T11:51:40;99370.22;;;14.06;51.90
61757;BME280;57225;61.460;24.060;2023-04-23T11:54:27;99371.72;;;13.82;52.20
61757;BME280;57225;61.460;24.060;2023-04-23T11:57:12;99364.06;;;13.70;52.84
61757;BME280;57225;61.460;24.060;2023-04-23T11:59:57;99354.72;;;13.89;53.11
61757;BME280;57225;61.460;24.060;2023-04-23T12:03:02;99343.28;;;13.96;52.66
61757;BME280;57225;61.460;24.060;2023-04-23T12:05:47;99351.78;;;13.93;52.33
61757;BME280;57225;61.460;24.060;2023-04-23T12:08:32;99349.81;;;14.19;52.74
61757;BME280;57225;61.460;24.060;2023-04-23T12:11:23;99342.53;;;13.67;53.27
61757;BME280;57225;61.460;24.060;2023-04-23T12:14:08;99343.94;;;13.46;53.30
61757;BME280;57225;61.460;24.060;2023-04-23T12:16:54;99339.88;;;13.76;53.53
61757;BME280;57225;61.460;24.060;2023-04-23T12:19:39;99337.22;;;13.98;53.34
61757;BME280;57225;61.460;24.060;2023-04-23T12:22:27;99339.06;;;14.17;52.56
61757;BME280;57225;61.460;24.060;2023-04-23T12:25:13;99328.63;;;14.18;52.54
61757;BME280;57225;61.460;24.060;2023-04-23T12:28:02;99325.16;;;13.72;53.73
61757;BME280;57225;61.460;24.060;2023-04-23T12:30:48;99324.47;;;13.26;55.37
61757;BME280;57225;61.460;24.060;2023-04-23T12:33:32;99316.25;;;13.48;55.67
61757;BME280;57225;61.460;24.060;2023-04-23T12:36:16;99308.50;;;13.81;54.27
61757;BME280;57225;61.460;24.060;2023-04-23T12:39:24;99303.88;;;14.16;53.41
61757;BME280;57225;61.460;24.060;2023-04-23T12:42:09;99306.44;;;14.36;53.29
61757;BME280;57225;61.460;24.060;2023-04-23T12:44:53;99303.63;;;14.36;52.83
61757;BME280;57225;61.460;24.060;2023-04-23T12:47:39;99290.09;;;14.09;52.77
61757;BME280;57225;61.460;24.060;2023-04-23T12:50:24;99288.16;;;13.93;53.88
61757;BME280;57225;61.460;24.060;2023-04-23T12:53:08;99295.13;;;14.01;53.73
61757;BME280;57225;61.460;24.060;2023-04-23T12:55:53;99291.09;;;14.28;53.73
61757;BME280;57225;61.460;24.060;2023-04-23T12:58:37;99292.88;;;14.34;53.21
61757;BME280;57225;61.460;24.060;2023-04-23T13:01:21;99274.59;;;14.04;53.98
61757;BME280;57225;61.460;24.060;2023-04-23T13:04:06;99287.38;;;14.05;53.75
61757;BME280;57225;61.460;24.060;2023-04-23T13:06:51;99275.97;;;14.38;53.56
61757;BME280;57225;61.460;24.060;2023-04-23T13:09:35;99279.13;;;14.40;53.17
61757;BME280;57225;61.460;24.060;2023-04-23T13:12:19;99275.06;;;14.54;53.26
61757;BME280;57225;61.460;24.060;2023-04-23T13:15:04;99265.06;;;14.65;52.57
61757;BME280;57225;61.460;24.060;2023-04-23T13:17:49;99260.59;;;14.55;53.17
61757;BME280;57225;61.460;24.060;2023-04-23T13:20:33;99256.34;;;14.51;53.85
61757;BME280;57225;61.460;24.060;2023-04-23T13:23:18;99251.91;;;14.75;53.04
61757;BME280;57225;61.460;24.060;2023-04-23T13:26:03;99255.53;;;15.10;51.19
61757;BME280;57225;61.460;24.060;2023-04-23T13:28:49;99254.22;;;15.23;51.48
61757;BME280;57225;61.460;24.060;2023-04-23T13:31:33;99254.31;;;15.54;51.61
61757;BME280;57225;61.460;24.060;2023-04-23T13:34:18;99256.63;;;15.99;49.88
61757;BME280;57225;61.460;24.060;2023-04-23T13:37:02;99249.22;;;16.24;48.67
61757;BME280;57225;61.460;24.060;2023-04-23T13:39:49;99248.84;;;16.43;48.65
61757;BME280;57225;61.460;24.060;2023-04-23T13:42:34;99248.22;;;16.08;49.48
61757;BME280;57225;61.460;24.060;2023-04-23T13:45:19;99230.13;;;16.19;48.25
61757;BME280;57225;61.460;24.060;2023-04-23T13:48:04;99222.91;;;16.48;47.31
61757;BME280;57225;61.460;24.060;2023-04-23T13:50:50;99230.72;;;16.54;46.15
61757;BME280;57225;61.460;24.060;2023-04-23T13:53:35;99231.59;;;16.32;45.51
61757;BME280;57225;61.460;24.060;2023-04-23T13:56:20;99232.81;;;16.22;46.21
61757;BME280;57225;61.460;24.060;2023-04-23T13:59:04;99230.38;;;16.02;47.28
61757;BME280;57225;61.460;24.060;2023-04-23T14:01:48;99232.19;;;16.18;46.70
61757;BME280;57225;61.460;24.060;2023-04-23T14:04:33;99236.59;;;16.28;46.39
61757;BME280;57225;61.460;24.060;2023-04-23T14:08:15;99230.34;;;16.24;46.51
61757;BME280;57225;61.460;24.060;2023-04-23T14:10:59;99222.47;;;16.19;48.09
61757;BME280;57225;61.460;24.060;2023-04-23T14:13:44;99221.41;;;16.26;47.40
61757;BME280;57225;61.460;24.060;2023-04-23T14:16:28;99214.09;;;16.28;48.16
61757;BME280;57225;61.460;24.060;2023-04-23T14:19:12;99223.06;;;16.54;48.00
61757;BME280;57225;61.460;24.060;2023-04-23T14:21:57;99198.72;;;16.69;46.88
61757;BME280;57225;61.460;24.060;2023-04-23T14:24:48;99208.28;;;16.72;46.61
61757;BME280;57225;61.460;24.060;2023-04-23T14:27:38;99211.94;;;16.50;46.21
61757;BME280;57225;61.460;24.060;2023-04-23T14:30:24;99220.78;;;16.22;46.57
61757;BME280;57225;61.460;24.060;2023-04-23T14:33:10;99215.69;;;15.98;46.39
61757;BME280;57225;61.460;24.060;2023-04-23T14:35:55;99217.38;;;15.87;47.25
61757;BME280;57225;61.460;24.060;2023-04-23T14:38:40;99218.72;;;15.73;47.86
61757;BME280;57225;61.460;24.060;2023-04-23T14:41:24;99210.47;;;15.79;47.15
61757;BME280;57225;61.460;24.060;2023-04-23T14:44:10;99213.16;;;15.60;46.14
61757;BME280;57225;61.460;24.060;2023-04-23T14:46:54;99194.00;;;15.46;46.41
61757;BME280;57225;61.460;24.060;2023-04-23T14:49:39;99208.66;;;15.41;46.41
61757;BME280;57225;61.460;24.060;2023-04-23T14:52:24;99203.50;;;15.40;46.85
61757;BME280;57225;61.460;24.060;2023-04-23T14:55:10;99191.44;;;15.30;46.42
61757;BME280;57225;61.460;24.060;2023-04-23T14:57:54;99196.72;;;15.28;46.11
61757;BME280;57225;61.460;24.060;2023-04-23T15:00:39;99194.53;;;15.32;45.80
61757;BME280;57225;61.460;24.060;2023-04-23T15:03:23;99193.13;;;15.27;46.05
61757;BME280;57225;61.460;24.060;2023-04-23T15:06:09;99190.41;;;15.24;46.75
61757;BME280;57225;61.460;24.060;2023-04-23T15:08:54;99184.50;;;15.22;45.89
61757;BME280;57225;61.460;24.060;2023-04-23T15:11:39;99171.97;;;15.14;45.98
61757;BME280;57225;61.460;24.060;2023-04-23T15:14:30;99174.69;;;15.26;46.58
61757;BME280;57225;61.460;24.060;2023-04-23T15:17:16;99174.84;;;15.23;45.98
61757;BME280;57225;61.460;24.060;2023-04-23T15:20:00;99173.81;;;15.29;46.02
61757;BME280;57225;61.460;24.060;2023-04-23T15:22:44;99170.25;;;15.38;46.41
61757;BME280;57225;61.460;24.060;2023-04-23T15:25:31;99162.88;;;15.53;45.20
61757;BME280;57225;61.460;24.060;2023-04-23T15:28:17;99162.13;;;15.62;44.55
61757;BME280;57225;61.460;24.060;2023-04-23T15:31:01;99156.91;;;15.51;44.15
61757;BME280;57225;61.460;24.060;2023-04-23T15:33:45;99154.97;;;15.39;45.36
61757;BME280;57225;61.460;24.060;2023-04-23T15:36:31;99159.53;;;15.24;45.17
61757;BME280;57225;61.460;24.060;2023-04-23T15:39:16;99145.47;;;15.15;44.94
61757;BME280;57225;61.460;24.060;2023-04-23T15:42:01;99137.31;;;15.08;45.19
61757;BME280;57225;61.460;24.060;2023-04-23T15:44:47;99140.53;;;14.97;45.80
61757;BME280;57225;61.460;24.060;2023-04-23T15:47:32;99134.38;;;14.89;45.24
61757;BME280;57225;61.460;24.060;2023-04-23T15:50:16;99135.09;;;15.03;46.01
61757;BME280;57225;61.460;24.060;2023-04-23T15:53:05;99131.38;;;15.06;46.24
61757;BME280;57225;61.460;24.060;2023-04-23T15:55:50;99119.22;;;15.09;45.96
61757;BME280;57225;61.460;24.060;2023-04-23T15:58:34;99121.97;;;15.00;45.48
61757;BME280;57225;61.460;24.060;2023-04-23T16:01:19;99116.34;;;15.00;45.30
61757;BME280;57225;61.460;24.060;2023-04-23T16:04:03;99105.88;;;14.91;45.93
61757;BME280;57225;61.460;24.060;2023-04-23T16:06:47;99111.56;;;14.78;46.35
61757;BME280;57225;61.460;24.060;2023-04-23T16:09:32;99108.66;;;14.69;46.51
61757;BME280;57225;61.460;24.060;2023-04-23T16:12:16;99100.84;;;14.64;46.44
61757;BME280;57225;61.460;24.060;2023-04-23T16:15:02;99097.38;;;14.60;46.78
61757;BME280;57225;61.460;24.060;2023-04-23T16:17:46;99100.50;;;14.62;46.85
61757;BME280;57225;61.460;24.060;2023-04-23T16:20:32;99092.09;;;14.62;47.29
61757;BME280;57225;61.460;24.060;2023-04-23T16:23:17;99091.78;;;14.60;47.36
61757;BME280;57225;61.460;24.060;2023-04-23T16:26:02;99085.06;;;14.58;47.27
61757;BME280;57225;61.460;24.060;2023-04-23T16:28:51;99083.09;;;14.67;47.38
61757;BME280;57225;61.460;24.060;2023-04-23T16:31:36;99077.03;;;14.47;47.35
61757;BME280;57225;61.460;24.060;2023-04-23T16:34:20;99050.94;;;14.25;48.21
61757;BME280;57225;61.460;24.060;2023-04-23T16:37:05;99070.47;;;14.28;48.22
61757;BME280;57225;61.460;24.060;2023-04-23T16:39:49;99070.56;;;14.25;48.40
61757;BME280;57225;61.460;24.060;2023-04-23T16:42:34;99066.13;;;14.15;48.79
61757;BME280;57225;61.460;24.060;2023-04-23T16:45:18;99061.09;;;14.09;49.07
61757;BME280;57225;61.460;24.060;2023-04-23T16:48:06;99054.53;;;13.91;48.98
61757;BME280;57225;61.460;24.060;2023-04-23T16:50:50;99059.66;;;13.92;49.54
61757;BME280;57225;61.460;24.060;2023-04-23T16:53:35;99056.22;;;13.88;49.84
61757;BME280;57225;61.460;24.060;2023-04-23T16:56:20;99047.16;;;13.84;49.82
61757;BME280;57225;61.460;24.060;2023-04-23T16:59:04;99047.69;;;13.79;50.10
61757;BME280;57225;61.460;24.060;2023-04-23T17:01:49;99037.66;;;13.69;50.23
61757;BME280;57225;61.460;24.060;2023-04-23T17:04:34;99033.97;;;13.59;50.77
61757;BME280;57225;61.460;24.060;2023-04-23T17:07:18;99043.06;;;13.51;51.10
61757;BME280;57225;61.460;24.060;2023-04-23T17:10:03;99041.13;;;13.48;51.21
61757;BME280;57225;61.460;24.060;2023-04-23T17:12:47;99028.63;;;13.27;51.71
61757;BME280;57225;61.460;24.060;2023-04-23T17:15:36;99047.75;;;13.28;52.13
61757;BME280;57225;61.460;24.060;2023-04-23T17:18:20;99039.69;;;13.18;52.37
61757;BME280;57225;61.460;24.060;2023-04-23T17:21:04;99035.50;;;13.10;52.61
61757;BME280;57225;61.460;24.060;2023-04-23T17:23:49;99036.44;;;13.07;52.63
61757;BME280;57225;61.460;24.060;2023-04-23T17:26:33;99036.50;;;13.03;52.79
61757;BME280;57225;61.460;24.060;2023-04-23T17:29:18;99040.78;;;12.95;53.03
61757;BME280;57225;61.460;24.060;2023-04-23T17:32:02;99044.66;;;12.85;53.69
61757;BME280;57225;61.460;24.060;2023-04-23T17:34:47;99031.78;;;12.75;54.14
61757;BME280;57225;61.460;24.060;2023-04-23T17:37:31;99036.22;;;12.60;54.19
61757;BME280;57225;61.460;24.060;2023-04-23T17:40:16;99038.41;;;12.52;54.89
61757;BME280;57225;61.460;24.060;2023-04-23T17:43:01;99030.34;;;12.41;55.07
61757;BME280;57225;61.460;24.060;2023-04-23T17:45:46;99038.59;;;12.32;55.28
61757;BME280;57225;61.460;24.060;2023-04-23T17:48:31;99044.38;;;12.25;55.67
61757;BME280;57225;61.460;24.060;2023-04-23T17:51:16;99040.94;;;12.34;54.83
61757;BME280;57225;61.460;24.060;2023-04-23T17:54:01;99036.44;;;12.24;55.24
61757;BME280;57225;61.460;24.060;2023-04-23T17:56:46;99043.53;;;12.12;55.50
61757;BME280;57225;61.460;24.060;2023-04-23T17:59:31;99038.03;;;12.08;55.77
61757;BME280;57225;61.460;24.060;2023-04-23T18:02:15;99045.72;;;12.04;56.14
61757;BME280;57225;61.460;24.060;2023-04-23T18:04:59;99043.91;;;11.98;56.26
61757;BME280;57225;61.460;24.060;2023-04-23T18:07:45;99042.75;;;11.95;56.56
61757;BME280;57225;61.460;24.060;2023-04-23T18:10:29;99040.44;;;11.94;56.26
61757;BME280;57225;61.460;24.060;2023-04-23T18:13:13;99049.00;;;11.87;56.70
61757;BME280;57225;61.460;24.060;2023-04-23T18:15:58;99048.63;;;11.85;57.12
61757;BME280;57225;61.460;24.060;2023-04-23T18:18:42;99049.97;;;11.80;57.41
61757;BME280;57225;61.460;24.060;2023-04-23T18:21:27;99041.16;;;11.82;57.50
61757;BME280;57225;61.460;24.060;2023-04-23T18:24:14;99038.88;;;11.77;57.98
61757;BME280;57225;61.460;24.060;2023-04-23T18:27:01;99030.50;;;11.77;58.07
61757;BME280;57225;61.460;24.060;2023-04-23T18:29:47;99033.78;;;11.72;58.28
61757;BME280;57225;61.460;24.060;2023-04-23T18:32:34;99033.16;;;11.64;58.42
61757;BME280;57225;61.460;24.060;2023-04-23T18:35:20;99028.56;;;11.57;58.70
61757;BME280;57225;61.460;24.060;2023-04-23T18:38:09;99021.44;;;11.56;58.80
61757;BME280;57225;61.460;24.060;2023-04-23T18:40:53;99024.72;;;11.51;59.13
61757;BME280;57225;61.460;24.060;2023-04-23T18:43:38;99015.38;;;11.58;59.19
61757;BME280;57225;61.460;24.060;2023-04-23T18:46:22;99018.97;;;11.58;59.34
61757;BME280;57225;61.460;24.060;2023-04-23T18:52:12;99014.00;;;11.50;59.57
61757;BME280;57225;61.460;24.060;2023-04-23T18:54:57;99004.13;;;11.45;59.99
61757;BME280;57225;61.460;24.060;2023-04-23T18:57:41;99003.81;;;11.43;60.06
61757;BME280;57225;61.460;24.060;2023-04-23T19:00:26;99005.72;;;11.46;59.84
61757;BME280;57225;61.460;24.060;2023-04-23T19:03:11;99002.84;;;11.34;60.27
61757;BME280;57225;61.460;24.060;2023-04-23T19:05:56;99000.56;;;11.28;60.53
61757;BME280;57225;61.460;24.060;2023-04-23T19:08:40;98997.94;;;11.21;60.97
61757;BME280;57225;61.460;24.060;2023-04-23T19:11:25;99002.13;;;11.13;61.24
61757;BME280;57225;61.460;24.060;2023-04-23T19:14:12;98998.63;;;11.09;61.45
61757;BME280;57225;61.460;24.060;2023-04-23T19:16:58;98996.44;;;11.01;61.65
61757;BME280;57225;61.460;24.060;2023-04-23T19:19:44;98989.47;;;10.93;61.88
61757;BME280;57225;61.460;24.060;2023-04-23T19:22:29;98990.31;;;10.89;62.45
61757;BME280;57225;61.460;24.060;2023-04-23T19:25:14;98967.66;;;10.71;62.65
61757;BME280;57225;61.460;24.060;2023-04-23T19:27:59;98986.63;;;10.76;62.92
61757;BME280;57225;61.460;24.060;2023-04-23T19:30:44;98981.94;;;10.73;63.03
61757;BME280;57225;61.460;24.060;2023-04-23T19:33:28;98992.50;;;10.62;63.04
61757;BME280;57225;61.460;24.060;2023-04-23T19:36:13;98979.09;;;10.57;62.90
61757;BME280;57225;61.460;24.060;2023-04-23T19:38:58;98978.13;;;10.47;62.78
61757;BME280;57225;61.460;24.060;2023-04-23T19:41:42;98977.47;;;10.40;62.68
61757;BME280;57225;61.460;24.060;2023-04-23T19:44:27;98959.16;;;10.23;62.90
61757;BME280;57225;61.460;24.060;2023-04-23T19:47:11;98968.34;;;10.20;62.79
61757;BME280;57225;61.460;24.060;2023-04-23T19:49:56;98957.69;;;10.15;62.83
61757;BME280;57225;61.460;24.060;2023-04-23T19:52:40;98966.53;;;10.09;62.92
61757;BME280;57225;61.460;24.060;2023-04-23T19:55:25;98964.69;;;10.03;63.08
61757;BME280;57225;61.460;24.060;2023-04-23T19:58:12;98957.31;;;9.93;63.38
61757;BME280;57225;61.460;24.060;2023-04-23T20:00:56;98954.69;;;9.86;63.60
61757;BME280;57225;61.460;24.060;2023-04-23T20:03:41;98953.53;;;9.83;63.62
61757;BME280;57225;61.460;24.060;2023-04-23T20:06:26;98952.81;;;9.79;64.03
61757;BME280;57225;61.460;24.060;2023-04-23T20:09:11;98952.53;;;9.74;64.30
61757;BME280;57225;61.460;24.060;2023-04-23T20:12:02;98956.22;;;9.67;65.05
61757;BME280;57225;61.460;24.060;2023-04-23T20:14:46;98947.16;;;9.63;65.15
61757;BME280;57225;61.460;24.060;2023-04-23T20:17:31;98944.50;;;9.56;65.71
61757;BME280;57225;61.460;24.060;2023-04-23T20:20:15;98937.84;;;9.50;65.93
61757;BME280;57225;61.460;24.060;2023-04-23T20:23:00;98927.22;;;9.45;66.57
61757;BME280;57225;61.460;24.060;2023-04-23T20:25:45;98926.50;;;9.41;66.78
61757;BME280;57225;61.460;24.060;2023-04-23T20:28:31;98921.19;;;9.26;67.23
61757;BME280;57225;61.460;24.060;2023-04-23T20:31:16;98920.50;;;9.19;67.98
61757;BME280;57225;61.460;24.060;2023-04-23T20:34:01;98924.56;;;9.14;68.00
61757;BME280;57225;61.460;24.060;2023-04-23T20:36:46;98917.19;;;9.04;68.36
61757;BME280;57225;61.460;24.060;2023-04-23T20:39:31;98914.53;;;8.97;68.78
61757;BME280;57225;61.460;24.060;2023-04-23T20:42:15;98894.94;;;8.81;69.36
61757;BME280;57225;61.460;24.060;2023-04-23T20:45:00;98909.19;;;8.83;69.77
61757;BME280;57225;61.460;24.060;2023-04-23T20:47:45;98910.50;;;8.75;70.08
61757;BME280;57225;61.460;24.060;2023-04-23T20:50:30;98901.56;;;8.64;70.43
61757;BME280;57225;61.460;24.060;2023-04-23T20:53:15;98899.25;;;8.59;70.96
61757;BME280;57225;61.460;24.060;2023-04-23T20:56:00;98889.72;;;8.60;71.12
61757;BME280;57225;61.460;24.060;2023-04-23T20:58:45;98899.38;;;8.52;71.89
61757;BME280;57225;61.460;24.060;2023-04-23T21:01:30;98893.06;;;8.47;72.28
61757;BME280;57225;61.460;24.060;2023-04-23T21:04:15;98889.19;;;8.41;72.44
61757;BME280;57225;61.460;24.060;2023-04-23T21:07:00;98883.75;;;8.34;72.91
61757;BME280;57225;61.460;24.060;2023-04-23T21:09:45;98884.97;;;8.33;73.76
61757;BME280;57225;61.460;24.060;2023-04-23T21:12:29;98883.81;;;8.27;73.94
61757;BME280;57225;61.460;24.060;2023-04-23T21:15:15;98876.72;;;8.23;74.35
61757;BME280;57225;61.460;24.060;2023-04-23T21:18:00;98874.41;;;8.21;75.02
61757;BME280;57225;61.460;24.060;2023-04-23T21:20:46;98865.31;;;8.17;75.68
61757;BME280;57225;61.460;24.060;2023-04-23T21:23:31;98865.06;;;8.08;75.60
61757;BME280;57225;61.460;24.060;2023-04-23T21:26:15;98854.88;;;7.98;75.90
61757;BME280;57225;61.460;24.060;2023-04-23T21:28:59;98860.50;;;7.91;76.57
61757;BME280;57225;61.460;24.060;2023-04-23T21:31:46;98858.97;;;7.90;76.63
61757;BME280;57225;61.460;24.060;2023-04-23T21:34:30;98856.94;;;7.90;77.21
61757;BME280;57225;61.460;24.060;2023-04-23T21:37:15;98852.63;;;7.89;78.13
61757;BME280;57225;61.460;24.060;2023-04-23T21:39:59;98861.75;;;7.86;78.58
61757;BME280;57225;61.460;24.060;2023-04-23T21:42:45;98850.72;;;7.83;78.63
61757;BME280;57225;61.460;24.060;2023-04-23T21:45:30;98842.41;;;7.83;78.66
61757;BME280;57225;61.460;24.060;2023-04-23T21:48:14;98842.81;;;7.81;78.46
61757;BME280;57225;61.460;24.060;2023-04-23T21:50:59;98834.56;;;7.78;78.82
61757;BME280;57225;61.460;24.060;2023-04-23T21:53:43;98833.69;;;7.81;78.75
61757;BME280;57225;61.460;24.060;2023-04-23T21:56:28;98834.56;;;7.78;79.58
61757;BME280;57225;61.460;24.060;2023-04-23T21:59:12;98829.00;;;7.78;79.43
61757;BME280;57225;61.460;24.060;2023-04-23T22:01:57;98800.13;;;7.72;79.21
61757;BME280;57225;61.460;24.060;2023-04-23T22:04:41;98813.88;;;7.82;79.33
61757;BME280;57225;61.460;24.060;2023-04-23T22:07:28;98813.50;;;7.80;79.59
61757;BME280;57225;61.460;24.060;2023-04-23T22:10:13;98809.13;;;7.83;79.19
61757;BME280;57225;61.460;24.060;2023-04-23T22:12:59;98800.34;;;7.84;79.05
61757;BME280;57225;61.460;24.060;2023-04-23T22:15:43;98780.28;;;7.77;79.47
61757;BME280;57225;61.460;24.060;2023-04-23T22:18:28;98787.97;;;7.92;79.42
61757;BME280;57225;61.460;24.060;2023-04-23T22:21:12;98786.84;;;7.90;78.85
61757;BME280;57225;61.460;24.060;2023-04-23T22:23:57;98783.69;;;7.88;78.69
61757;BME280;57225;61.460;24.060;2023-04-23T22:26:41;98784.06;;;7.90;78.95
61757;BME280;57225;61.460;24.060;2023-04-23T22:29:26;98783.69;;;7.88;78.51
61757;BME280;57225;61.460;24.060;2023-04-23T22:32:10;98775.75;;;7.90;78.84
61757;BME280;57225;61.460;24.060;2023-04-23T22:34:55;98778.97;;;7.85;78.65
61757;BME280;57225;61.460;24.060;2023-04-23T22:37:39;98767.53;;;7.83;78.27
61757;BME280;57225;61.460;24.060;2023-04-23T22:40:24;98765.09;;;7.85;78.66
61757;BME280;57225;61.460;24.060;2023-04-23T22:43:08;98764.66;;;7.90;77.87
61757;BME280;57225;61.460;24.060;2023-04-23T22:45:53;98757.53;;;7.89;77.92
61757;BME280;57225;61.460;24.060;2023-04-23T22:48:37;98761.03;;;7.93;77.81
61757;BME280;57225;61.460;24.060;2023-04-23T22:51:27;98758.25;;;7.93;77.67
61757;BME280;57225;61.460;24.060;2023-04-23T22:54:13;98748.88;;;7.83;77.69
61757;BME280;57225;61.460;24.060;2023-04-23T22:56:58;98740.88;;;7.89;77.44
61757;BME280;57225;61.460;24.060;2023-04-23T22:59:42;98738.94;;;7.86;77.48
61757;BME280;57225;61.460;24.060;2023-04-23T23:02:26;98742.00;;;7.91;77.55
61757;BME280;57225;61.460;24.060;2023-04-23T23:05:11;98728.16;;;7.91;77.18
61757;BME280;57225;61.460;24.060;2023-04-23T23:07:55;98727.72;;;7.93;77.18
61757;BME280;57225;61.460;24.060;2023-04-23T23:10:40;98722.25;;;7.89;76.95
61757;BME280;57225;61.460;24.060;2023-04-23T23:13:24;98733.34;;;7.89;77.30
61757;BME280;57225;61.460;24.060;2023-04-23T23:16:09;98717.13;;;7.88;77.21
61757;BME280;57225;61.460;24.060;2023-04-23T23:18:54;98711.19;;;7.86;76.99
61757;BME280;57225;61.460;24.060;2023-04-23T23:21:38;98700.47;;;7.88;76.97
61757;BME280;57225;61.460;24.060;2023-04-23T23:24:24;98699.22;;;7.92;76.50
61757;BME280;57225;61.460;24.060;2023-04-23T23:27:08;98693.25;;;7.94;76.40
61757;BME280;57225;61.460;24.060;2023-04-23T23:29:53;98688.91;;;7.93;76.38
61757;BME280;57225;61.460;24.060;2023-04-23T23:32:37;98677.88;;;7.89;76.45
61757;BME280;57225;61.460;24.060;2023-04-23T23:35:22;98674.31;;;7.89;76.61
61757;BME280;57225;61.460;24.060;2023-04-23T23:38:06;98664.31;;;7.95;76.30
61757;BME280;57225;61.460;24.060;2023-04-23T23:40:50;98649.28;;;7.92;76.50
61757;BME280;57225;61.460;24.060;2023-04-23T23:43:35;98655.97;;;7.95;76.61
61757;BME280;57225;61.460;24.060;2023-04-23T23:46:20;98651.25;;;7.92;76.48
61757;BME280;57225;61.460;24.060;2023-04-23T23:49:05;98645.69;;;7.95;76.13
61757;BME280;57225;61.460;24.060;2023-04-23T23:51:51;98648.78;;;7.97;76.23
61757;BME280;57225;61.460;24.060;2023-04-23T23:54:36;98630.59;;;7.96;76.41
61757;BME280;57225;61.460;24.060;2023-04-23T23:57:21;98630.53;;;8.00;76.38
